createdAt,value
2019-03-08T00:01:22.934Z,63.50
2019-03-08T00:03:51.374Z,64.47
2019-03-08T00:06:19.825Z,63.47
2019-03-08T00:08:48.242Z,64.56
2019-03-08T00:11:16.632Z,64.35
2019-03-08T00:13:45.052Z,64.02
2019-03-08T00:16:13.419Z,64.33
2019-03-08T00:18:42.011Z,64.50
2019-03-08T00:21:10.508Z,64.23
2019-03-08T00:23:39.073Z,64.31
2019-03-08T00:26:07.458Z,64.86
2019-03-08T00:28:35.861Z,65.95
2019-03-08T00:31:04.267Z,67.82
2019-03-08T00:33:32.657Z,67.89
2019-03-08T00:36:01.070Z,68.55
2019-03-08T00:38:29.642Z,68.85
2019-03-08T00:40:58.046Z,69.53
2019-03-08T00:43:27.476Z,70.43
2019-03-08T00:45:56.913Z,70.47
2019-03-08T00:48:25.339Z,71.87
2019-03-08T00:50:53.715Z,71.54
2019-03-08T00:53:22.177Z,71.98
2019-03-08T00:55:50.675Z,73.20
2019-03-08T00:58:19.154Z,73.71
2019-03-08T01:00:47.612Z,75.00
2019-03-08T01:03:16.021Z,74.72
2019-03-08T01:05:44.471Z,75.54
2019-03-08T01:08:14.225Z,75.30
2019-03-08T01:10:42.628Z,75.31
2019-03-08T01:13:11.047Z,76.00
2019-03-08T01:15:41.869Z,75.94
2019-03-08T01:18:10.322Z,76.56
2019-03-08T01:20:38.728Z,77.04
2019-03-08T01:23:07.227Z,78.50
2019-03-08T01:25:35.652Z,79.05
2019-03-08T01:28:09.475Z,78.72
2019-03-08T01:30:39.616Z,78.48
2019-03-08T01:33:08.208Z,79.14
2019-03-08T01:35:36.967Z,79.60
2019-03-08T01:38:05.920Z,80.08
2019-03-08T01:40:34.410Z,79.73
2019-03-08T01:43:03.936Z,79.76
2019-03-08T01:45:32.483Z,80.32
2019-03-08T01:48:00.917Z,80.92
2019-03-08T01:50:29.341Z,80.73
2019-03-08T01:52:58.884Z,81.44
2019-03-08T01:55:27.367Z,81.14
2019-03-08T01:57:55.755Z,81.74
2019-03-08T02:00:24.473Z,81.45
2019-03-08T02:02:52.910Z,81.93
2019-03-08T02:05:22.336Z,81.77
2019-03-08T02:07:50.881Z,81.93
2019-03-08T02:10:19.381Z,82.26
2019-03-08T02:12:47.773Z,82.01
2019-03-08T02:15:18.470Z,82.17
2019-03-08T02:17:46.927Z,82.30
2019-03-08T02:20:21.604Z,82.43
2019-03-08T02:22:50.055Z,83.39
2019-03-08T02:25:18.418Z,82.90
2019-03-08T02:27:46.814Z,83.24
2019-03-08T02:30:18.990Z,82.82
2019-03-08T02:32:49.946Z,82.50
2019-03-08T02:35:20.853Z,82.13
2019-03-08T02:37:49.251Z,82.00
2019-03-08T02:40:39.269Z,82.29
2019-03-08T02:43:17.199Z,82.42
2019-03-08T02:45:43.988Z,82.10
2019-03-08T02:48:14.827Z,82.45
2019-03-08T02:50:44.916Z,82.36
2019-03-08T02:53:13.643Z,82.24
2019-03-08T02:55:42.045Z,82.47
2019-03-08T02:58:10.524Z,83.04
2019-03-08T03:00:42.031Z,82.69
2019-03-08T03:03:11.504Z,83.26
2019-03-08T03:05:40.756Z,83.13
2019-03-08T03:08:09.136Z,83.22
2019-03-08T03:10:37.545Z,83.16
2019-03-08T03:13:10.028Z,84.11
2019-03-08T03:15:37.675Z,84.19
2019-03-08T03:18:06.002Z,84.31
2019-03-08T03:20:36.880Z,84.51
2019-03-08T03:23:05.306Z,84.39
2019-03-08T03:25:33.698Z,84.04
2019-03-08T03:28:02.119Z,83.98
2019-03-08T03:30:30.550Z,84.55
2019-03-08T03:33:01.461Z,83.99
2019-03-08T03:35:30.129Z,84.28
2019-03-08T03:38:01.012Z,84.41
2019-03-08T03:40:31.938Z,85.02
2019-03-08T03:43:00.319Z,85.06
2019-03-08T03:45:28.707Z,84.63
2019-03-08T03:47:57.106Z,84.96
2019-03-08T03:50:25.503Z,85.13
2019-03-08T03:52:53.891Z,85.14
2019-03-08T03:55:22.317Z,85.21
2019-03-08T03:57:50.666Z,85.01
2019-03-08T04:00:23.754Z,85.38
2019-03-08T04:02:52.309Z,85.38
2019-03-08T04:05:20.786Z,85.62
2019-03-08T04:07:49.176Z,85.56
2019-03-08T04:10:18.557Z,85.66
2019-03-08T04:12:47.107Z,85.67
2019-03-08T04:15:17.867Z,85.30
2019-03-08T04:17:46.686Z,85.62
2019-03-08T04:20:18.929Z,85.34
2019-03-08T04:22:47.597Z,85.48
2019-03-08T04:25:16.220Z,85.08
2019-03-08T04:27:44.758Z,85.05
2019-03-08T04:30:20.471Z,85.68
2019-03-08T04:32:48.919Z,85.45
2019-03-08T04:35:17.284Z,85.00
2019-03-08T04:37:48.184Z,84.96
2019-03-08T04:40:18.101Z,84.79
2019-03-08T04:42:46.481Z,84.82
2019-03-08T04:45:17.420Z,84.75
2019-03-08T04:47:45.820Z,84.79
2019-03-08T04:50:15.352Z,84.50
2019-03-08T04:52:43.747Z,84.44
2019-03-08T04:55:14.462Z,84.63
2019-03-08T04:57:46.645Z,84.63
2019-03-08T05:00:16.596Z,84.47
2019-03-08T05:02:44.975Z,84.44
2019-03-08T05:05:13.973Z,84.42
2019-03-08T05:07:45.065Z,84.32
2019-03-08T05:10:20.873Z,84.80
2019-03-08T05:12:49.340Z,85.02
2019-03-08T05:15:18.307Z,84.52
2019-03-08T05:17:46.691Z,84.71
2019-03-08T05:20:15.150Z,85.08
2019-03-08T05:22:43.559Z,84.33
2019-03-08T05:25:14.034Z,84.48
2019-03-08T05:27:44.097Z,84.45
2019-03-08T05:30:14.798Z,84.32
2019-03-08T05:32:43.224Z,84.07
2019-03-08T05:35:13.531Z,84.08
2019-03-08T05:37:41.918Z,84.13
2019-03-08T05:40:13.552Z,84.39
2019-03-08T05:42:47.617Z,84.36
2019-03-08T05:45:16.280Z,84.44
2019-03-08T05:47:44.725Z,84.57
2019-03-08T05:50:17.406Z,84.87
2019-03-08T05:52:48.354Z,84.85
2019-03-08T05:55:17.818Z,85.10
2019-03-08T05:57:46.241Z,85.49
2019-03-08T06:00:32.133Z,85.43
2019-03-08T06:02:56.711Z,85.38
2019-03-08T06:05:25.106Z,85.38
2019-03-08T06:07:53.574Z,85.50
2019-03-08T06:10:33.506Z,85.27
2019-03-08T06:13:06.463Z,85.85
2019-03-08T06:15:34.917Z,85.90
2019-03-08T06:18:03.298Z,85.82
2019-03-08T06:20:31.697Z,85.98
2019-03-08T06:23:04.512Z,86.25
2019-03-08T06:25:49.285Z,85.59
2019-03-08T06:28:17.832Z,85.26
2019-03-08T06:30:46.229Z,84.60
2019-03-08T06:33:14.622Z,84.38
2019-03-08T06:35:43.041Z,84.35
2019-03-08T06:38:15.143Z,84.47
2019-03-08T06:40:43.568Z,84.60
2019-03-08T06:43:16.414Z,84.43
2019-03-08T06:45:44.809Z,84.66
2019-03-08T06:48:13.209Z,84.76
2019-03-08T06:50:41.670Z,84.79
2019-03-08T06:53:10.056Z,84.72
2019-03-08T06:55:38.424Z,85.14
2019-03-08T06:58:07.004Z,84.54
2019-03-08T07:00:37.025Z,84.15
2019-03-08T07:03:09.612Z,84.41
2019-03-08T07:05:38.053Z,83.99
2019-03-08T07:08:06.649Z,83.62
2019-03-08T07:10:35.040Z,84.10
2019-03-08T07:13:03.994Z,83.77
2019-03-08T07:15:32.517Z,83.45
2019-03-08T07:18:01.082Z,84.25
2019-03-08T07:20:32.116Z,83.58
2019-03-08T07:23:02.149Z,83.68
2019-03-08T07:25:32.180Z,83.33
2019-03-08T07:28:22.535Z,82.93
2019-03-08T07:30:57.958Z,82.87
2019-03-08T07:33:24.360Z,83.04
2019-03-08T07:35:54.678Z,83.21
2019-03-08T07:38:39.945Z,83.36
2019-03-08T07:41:14.090Z,83.95
2019-03-08T07:44:10.771Z,83.08
2019-03-08T07:46:43.406Z,81.93
2019-03-08T07:49:13.415Z,81.47
2019-03-08T07:51:44.397Z,81.73
2019-03-08T07:54:31.431Z,80.76
2019-03-08T07:57:09.452Z,80.59
2019-03-08T07:59:53.655Z,80.89
2019-03-08T08:02:37.872Z,80.14
2019-03-08T08:05:25.665Z,80.60
2019-03-08T08:08:05.613Z,80.00
2019-03-08T08:10:36.972Z,79.75
2019-03-08T08:13:23.608Z,78.78
2019-03-08T08:16:05.871Z,79.68
2019-03-08T08:18:35.906Z,78.71
2019-03-08T08:21:12.255Z,78.67
2019-03-08T08:23:58.478Z,77.94
2019-03-08T08:26:35.063Z,77.15
2019-03-08T08:29:21.495Z,75.33
2019-03-08T08:31:57.679Z,75.07
2019-03-08T08:34:39.618Z,72.70
2019-03-08T08:37:25.668Z,71.82
2019-03-08T08:40:04.217Z,72.40
2019-03-08T08:42:36.923Z,72.35
2019-03-08T08:45:10.662Z,74.18
2019-03-08T08:47:46.956Z,74.71
2019-03-08T08:50:16.982Z,74.15
2019-03-08T08:53:05.818Z,73.04
2019-03-08T08:55:35.850Z,73.12
2019-03-08T08:58:15.307Z,71.79
2019-03-08T09:00:48.266Z,72.34
2019-03-08T09:03:18.301Z,71.82
2019-03-08T09:06:05.809Z,72.04
2019-03-08T09:08:38.283Z,71.21
2019-03-08T09:11:11.317Z,71.29
2019-03-08T09:13:40.820Z,72.00
2019-03-08T09:16:26.149Z,70.69
2019-03-08T09:18:59.377Z,71.08
2019-03-08T09:21:29.407Z,68.59
2019-03-08T09:23:59.980Z,67.21
2019-03-08T09:26:45.521Z,65.57
2019-03-08T09:29:15.559Z,65.29
2019-03-08T09:32:01.993Z,64.61
2019-03-08T09:34:32.077Z,65.28
2019-03-08T09:37:07.306Z,62.78
2019-03-08T09:39:42.032Z,62.49
2019-03-08T09:42:12.090Z,65.49
2019-03-08T09:44:43.043Z,62.38
2019-03-08T09:47:28.447Z,59.33
2019-03-08T09:50:07.213Z,59.79
2019-03-08T09:52:37.351Z,60.12
2019-03-08T09:55:10.272Z,57.96
2019-03-08T09:57:40.656Z,56.14
2019-03-08T10:00:26.218Z,56.39
2019-03-08T10:02:56.245Z,59.22
2019-03-08T10:05:26.259Z,56.25
2019-03-08T10:07:56.345Z,53.99
2019-03-08T10:10:29.118Z,54.83
2019-03-08T10:12:59.177Z,54.28
2019-03-08T10:15:32.261Z,55.63
2019-03-08T10:18:05.123Z,56.74
2019-03-08T10:20:50.480Z,57.81
2019-03-08T10:23:23.263Z,56.42
2019-03-08T10:25:53.324Z,57.20
2019-03-08T10:28:23.547Z,56.46
2019-03-08T10:31:10.352Z,57.08
2019-03-08T10:33:52.441Z,57.76
2019-03-08T10:36:34.709Z,60.63
2019-03-08T10:39:22.901Z,62.03
2019-03-08T10:41:52.961Z,62.57
2019-03-08T10:44:32.140Z,61.68
2019-03-08T10:47:05.263Z,64.25
2019-03-08T10:49:54.987Z,62.63
2019-03-08T10:52:35.398Z,62.24
2019-03-08T10:55:08.836Z,63.93
2019-03-08T10:57:49.068Z,60.98
2019-03-08T11:00:20.294Z,58.48
2019-03-08T11:03:02.176Z,58.65
2019-03-08T11:05:45.579Z,59.96
2019-03-08T11:08:29.569Z,57.88
2019-03-08T11:11:06.430Z,54.82
2019-03-08T11:13:32.207Z,54.64
2019-03-08T11:16:20.342Z,54.30
2019-03-08T11:19:08.304Z,54.58
2019-03-08T11:21:32.452Z,57.99
2019-03-08T11:24:02.490Z,56.19
2019-03-08T11:26:32.546Z,56.23
2019-03-08T11:29:08.352Z,56.37
2019-03-08T11:31:50.628Z,55.77
2019-03-08T11:34:25.402Z,54.10
2019-03-08T11:36:55.555Z,51.54
2019-03-08T11:39:46.177Z,51.97
2019-03-08T11:42:21.438Z,52.16
2019-03-08T11:45:00.341Z,52.79
2019-03-08T11:47:30.344Z,52.88
2019-03-08T11:50:00.404Z,52.93
2019-03-08T11:52:33.415Z,52.56
2019-03-08T11:55:11.614Z,54.30
2019-03-08T11:57:56.191Z,54.50
2019-03-08T12:00:38.398Z,53.19
2019-03-08T12:03:16.920Z,53.19
2019-03-08T12:05:49.999Z,52.94
2019-03-08T12:08:40.519Z,54.59
2019-03-08T12:11:16.518Z,54.89
2019-03-08T12:13:56.192Z,53.49
2019-03-08T12:16:26.279Z,54.13
2019-03-08T12:19:12.738Z,55.45
2019-03-08T12:21:58.866Z,56.18
2019-03-08T12:24:32.209Z,55.86
2019-03-08T12:27:02.279Z,55.94
2019-03-08T12:29:41.342Z,54.01
2019-03-08T12:32:11.373Z,55.85
2019-03-08T12:34:44.071Z,54.69
2019-03-08T12:37:16.536Z,52.56
2019-03-08T12:39:49.622Z,49.84
2019-03-08T12:42:25.976Z,51.15
2019-03-08T12:45:06.857Z,51.21
2019-03-08T12:47:45.362Z,51.73
2019-03-08T12:50:15.748Z,49.15
2019-03-08T12:52:45.897Z,49.32
2019-03-08T12:55:25.222Z,47.25
2019-03-08T12:57:55.555Z,45.99
2019-03-08T13:00:25.629Z,46.46
2019-03-08T13:03:15.115Z,46.04
2019-03-08T13:06:01.695Z,48.49
2019-03-08T13:08:31.776Z,49.91
2019-03-08T13:11:03.674Z,50.89
2019-03-08T13:13:32.075Z,54.80
2019-03-08T13:16:00.492Z,52.19
2019-03-08T13:18:29.077Z,51.86
2019-03-08T13:20:58.590Z,52.85
2019-03-08T13:23:28.063Z,51.27
2019-03-08T13:25:56.516Z,48.48
2019-03-08T13:28:24.916Z,48.36
2019-03-08T13:30:53.309Z,47.23
2019-03-08T13:33:21.991Z,48.12
2019-03-08T13:35:50.465Z,49.08
2019-03-08T13:38:31.074Z,49.34
2019-03-08T13:41:03.310Z,50.98
2019-03-08T13:43:31.731Z,49.69
2019-03-08T13:46:05.367Z,50.08
2019-03-08T13:48:33.769Z,49.27
2019-03-08T13:51:04.570Z,50.27
2019-03-08T13:53:32.948Z,50.62
2019-03-08T13:56:01.453Z,50.71
2019-03-08T13:58:32.943Z,50.34
2019-03-08T14:01:01.426Z,50.00
2019-03-08T14:03:36.635Z,50.05
2019-03-08T14:06:01.037Z,50.29
2019-03-08T14:08:30.088Z,50.87
2019-03-08T14:10:58.476Z,50.55
2019-03-08T14:13:29.615Z,50.28
2019-03-08T14:16:02.738Z,51.46
2019-03-08T14:18:31.144Z,51.59
2019-03-08T14:20:59.551Z,52.27
2019-03-08T14:23:30.854Z,53.07
2019-03-08T14:26:01.659Z,56.06
2019-03-08T14:28:30.287Z,54.96
2019-03-08T14:31:15.832Z,54.27
2019-03-08T14:33:48.098Z,52.49
2019-03-08T14:36:16.682Z,51.02
2019-03-08T14:38:45.015Z,52.90
2019-03-08T14:41:15.053Z,51.07
2019-03-08T14:43:53.809Z,53.79
2019-03-08T14:46:29.714Z,51.84
2019-03-08T14:49:00.833Z,52.20
2019-03-08T14:51:31.916Z,51.80
2019-03-08T14:54:00.292Z,54.55
2019-03-08T14:56:35.470Z,54.49
2019-03-08T14:59:01.928Z,55.83
2019-03-08T15:01:34.207Z,55.13
2019-03-08T15:04:03.782Z,55.20
2019-03-08T15:06:32.183Z,57.00
2019-03-08T15:09:00.595Z,56.64
2019-03-08T15:11:28.974Z,56.07
2019-03-08T15:13:58.987Z,55.57
2019-03-08T15:16:27.577Z,57.48
2019-03-08T15:18:57.940Z,57.82
2019-03-08T15:21:26.328Z,58.65
2019-03-08T15:23:55.979Z,57.97
2019-03-08T15:26:25.452Z,57.57
2019-03-08T15:28:58.998Z,58.07
2019-03-08T15:31:27.398Z,58.07
2019-03-08T15:33:59.466Z,60.36
2019-03-08T15:36:27.851Z,59.99
2019-03-08T15:38:58.777Z,59.11
2019-03-08T15:41:34.303Z,59.27
2019-03-08T15:43:58.824Z,59.32
2019-03-08T15:46:27.260Z,58.47
2019-03-08T15:48:56.994Z,59.50
2019-03-08T15:51:25.684Z,59.30
2019-03-08T15:54:00.671Z,59.45
2019-03-08T15:56:30.047Z,60.70
2019-03-08T15:58:59.450Z,59.81
2019-03-08T16:01:27.908Z,60.43
2019-03-08T16:03:57.223Z,60.13
2019-03-08T16:06:26.243Z,60.67
2019-03-08T16:08:55.721Z,60.97
2019-03-08T16:11:25.074Z,61.77
2019-03-08T16:13:57.494Z,62.08
2019-03-08T16:16:25.930Z,62.03
2019-03-08T16:18:56.804Z,62.48
2019-03-08T16:21:26.305Z,62.81
2019-03-08T16:23:54.724Z,63.91
2019-03-08T16:26:25.383Z,62.70
2019-03-08T16:28:53.279Z,63.59
2019-03-08T16:31:26.639Z,62.71
2019-03-08T16:34:05.539Z,63.23
2019-03-08T16:36:35.534Z,62.76
2019-03-08T16:39:14.768Z,61.38
2019-03-08T16:42:00.884Z,60.56
2019-03-08T16:45:04.342Z,60.56
2019-03-08T16:47:43.834Z,60.84
2019-03-08T16:50:16.288Z,60.91
2019-03-08T16:52:57.893Z,60.20
2019-03-08T16:55:35.584Z,60.20
2019-03-08T16:58:31.238Z,59.06
2019-03-08T17:01:20.591Z,60.08
2019-03-08T17:04:02.141Z,58.83
2019-03-08T17:06:34.687Z,57.32
2019-03-08T17:09:16.200Z,59.17
2019-03-08T17:11:58.087Z,59.13
2019-03-08T17:14:37.804Z,57.45
2019-03-08T17:17:08.068Z,58.53
2019-03-08T17:19:45.355Z,58.20
2019-03-08T17:22:24.513Z,59.24
2019-03-08T17:25:14.405Z,59.33
2019-03-08T17:27:48.471Z,59.34
2019-03-08T17:30:25.624Z,59.46
2019-03-08T17:33:14.424Z,59.80
2019-03-08T17:35:45.507Z,60.14
2019-03-08T17:38:16.097Z,60.17
2019-03-08T17:40:48.398Z,61.57
2019-03-08T17:43:32.983Z,61.34
2019-03-08T17:46:09.471Z,62.65
2019-03-08T17:48:51.502Z,63.92
2019-03-08T17:51:30.788Z,64.27
2019-03-08T17:54:17.744Z,64.27
2019-03-08T17:56:59.580Z,64.02
2019-03-08T17:59:38.332Z,64.31
2019-03-08T18:02:11.328Z,64.42
2019-03-08T18:04:47.708Z,64.65
2019-03-08T18:07:21.922Z,65.27
2019-03-08T18:09:52.063Z,65.46
2019-03-08T18:12:38.686Z,64.90
2019-03-08T18:15:13.343Z,65.92
2019-03-08T18:17:58.657Z,65.13
2019-03-08T18:20:29.988Z,65.43
2019-03-08T18:23:15.339Z,66.55
2019-03-08T18:25:55.376Z,66.89
2019-03-08T18:28:45.336Z,65.89
2019-03-08T18:31:15.386Z,66.20
2019-03-08T18:33:46.320Z,66.79
2019-03-08T18:36:25.380Z,66.31
2019-03-08T18:39:06.548Z,67.00
2019-03-08T18:41:36.660Z,64.78
2019-03-08T18:44:09.753Z,66.52
2019-03-08T18:46:58.246Z,65.48
2019-03-08T18:49:28.468Z,65.56
2019-03-08T18:52:14.720Z,65.91
2019-03-08T18:55:01.377Z,64.81
2019-03-08T18:57:49.736Z,65.14
2019-03-08T19:00:37.565Z,65.86
2019-03-08T19:03:24.569Z,64.77
2019-03-08T19:05:57.711Z,66.68
2019-03-08T19:08:35.526Z,66.41
2019-03-08T19:11:05.678Z,65.43
2019-03-08T19:13:44.389Z,65.12
2019-03-08T19:16:32.444Z,66.69
2019-03-08T19:19:03.508Z,66.12
2019-03-08T19:21:53.885Z,65.48
2019-03-08T19:24:32.508Z,65.07
2019-03-08T19:27:07.097Z,65.84
2019-03-08T19:29:42.484Z,64.81
2019-03-08T19:32:15.678Z,64.84
2019-03-08T19:35:08.854Z,64.84
2019-03-08T19:37:42.537Z,65.13
2019-03-08T19:40:18.027Z,64.57
2019-03-08T19:43:04.300Z,64.07
2019-03-08T19:45:34.616Z,64.90
2019-03-08T19:48:21.529Z,66.03
2019-03-08T19:50:57.095Z,64.49
2019-03-08T19:53:31.232Z,64.89
2019-03-08T19:56:07.151Z,65.19
2019-03-08T19:58:52.077Z,64.77
2019-03-08T20:01:26.155Z,64.66
2019-03-08T20:04:00.743Z,65.30
2019-03-08T20:06:31.097Z,65.02
2019-03-08T20:09:07.553Z,65.27
2019-03-08T20:11:38.925Z,65.67
2019-03-08T20:14:24.003Z,65.63
2019-03-08T20:17:00.055Z,66.23
2019-03-08T20:19:47.138Z,66.89
2019-03-08T20:22:25.049Z,67.15
2019-03-08T20:25:24.635Z,67.79
2019-03-08T20:27:55.269Z,68.13
2019-03-08T20:30:40.663Z,68.73
2019-03-08T20:33:17.030Z,68.85
2019-03-08T20:35:51.385Z,69.70
2019-03-08T20:38:21.143Z,69.78
2019-03-08T20:41:00.158Z,70.17
2019-03-08T20:43:30.386Z,71.25
2019-03-08T20:46:00.525Z,70.81
2019-03-08T20:48:29.621Z,70.48
2019-03-08T20:50:58.112Z,70.89
2019-03-08T20:53:30.309Z,70.91
2019-03-08T20:55:58.895Z,71.24
2019-03-08T20:58:28.399Z,71.10
2019-03-08T21:00:57.224Z,71.40
2019-03-08T21:03:25.639Z,71.24
2019-03-08T21:05:54.411Z,71.76
2019-03-08T21:08:22.901Z,72.73
2019-03-08T21:10:53.764Z,72.35
2019-03-08T21:13:24.631Z,71.93
2019-03-08T21:19:01.629Z,72.72
2019-03-08T21:21:38.680Z,73.12
2019-03-08T21:24:07.526Z,73.50
2019-03-08T21:26:35.953Z,73.13
2019-03-08T21:29:17.042Z,72.70
2019-03-08T21:31:49.538Z,72.44
2019-03-08T21:34:20.538Z,73.11
2019-03-08T21:36:51.396Z,72.81
2019-03-08T21:39:21.140Z,72.52
2019-03-08T21:41:49.624Z,72.46
2019-03-08T21:44:18.007Z,72.15
2019-03-08T21:46:46.779Z,72.31
2019-03-08T21:49:17.626Z,72.84
2019-03-08T21:51:49.534Z,71.96
2019-03-08T21:54:22.108Z,71.73
2019-03-08T21:56:49.770Z,70.95
2019-03-08T21:59:18.567Z,70.87
2019-03-08T22:01:46.989Z,70.62
2019-03-08T22:04:17.040Z,70.36
2019-03-08T22:06:45.521Z,70.64
2019-03-08T22:09:18.719Z,70.49
2019-03-08T22:11:50.065Z,71.04
2019-03-08T22:14:19.475Z,70.51
2019-03-08T22:16:47.993Z,70.58
2019-03-08T22:19:24.957Z,71.08
2019-03-08T22:21:53.376Z,71.39
2019-03-08T22:24:22.775Z,71.52
2019-03-08T22:26:53.919Z,71.78
2019-03-08T22:29:22.445Z,71.40
2019-03-08T22:31:50.889Z,72.00
2019-03-08T22:34:23.133Z,72.08
2019-03-08T22:36:51.545Z,72.04
2019-03-08T22:39:19.947Z,71.67
2019-03-08T22:41:48.367Z,72.39
2019-03-08T22:44:16.795Z,71.92
2019-03-08T22:46:46.363Z,71.01
2019-03-08T22:49:16.198Z,71.05
2019-03-08T22:51:44.586Z,71.09
2019-03-08T22:54:14.056Z,71.34
2019-03-08T22:56:46.561Z,71.54
2019-03-08T22:59:14.192Z,71.10
2019-03-08T23:01:51.504Z,71.35
2019-03-08T23:04:20.324Z,71.93
2019-03-08T23:06:48.862Z,71.96
2019-03-08T23:09:17.818Z,72.05
2019-03-08T23:11:46.375Z,72.06
2019-03-08T23:14:14.798Z,72.25
2019-03-08T23:16:46.994Z,72.25
2019-03-08T23:19:17.817Z,72.49
2019-03-08T23:21:46.217Z,72.12
2019-03-08T23:24:18.769Z,72.22
2019-03-08T23:26:48.803Z,72.60
2019-03-08T23:29:23.520Z,72.49
2019-03-08T23:31:53.551Z,72.04
2019-03-08T23:34:21.967Z,72.68
2019-03-08T23:36:50.685Z,72.75
2019-03-08T23:39:19.120Z,72.32
2019-03-08T23:41:47.537Z,72.60
2019-03-08T23:44:15.918Z,72.32
2019-03-08T23:46:45.119Z,72.31
2019-03-08T23:49:13.515Z,72.47
2019-03-08T23:51:42.813Z,72.25
2019-03-08T23:54:14.122Z,72.43
2019-03-08T23:56:43.449Z,72.56
2019-03-08T23:59:11.854Z,72.75
